sensor_id;sensor_type;location;lat;lon;timestamp;temperature;humidity
5258;DHT22;2651;51.594;9.928;2022-08-01T00:00:25;20.50;99.90
5258;DHT22;2651;51.594;9.928;2022-08-01T00:01:27;20.50;99.90
5258;DHT22;2651;51.594;9.928;2022-08-01T00:02:29;20.50;99.90
5258;DHT22;2651;51.594;9.928;2022-08-01T00:03:32;20.50;99.90
5258;DHT22;2651;51.594;9.928;2022-08-01T00:04:34;20.50;99.90
5258;DHT22;2651;51.594;9.928;2022-08-01T00:05:36;20.50;99.90
5258;DHT22;2651;51.594;9.928;2022-08-01T00:06:37;20.40;99.90
5258;DHT22;2651;51.594;9.928;2022-08-01T00:07:39;20.40;99.90
5258;DHT22;2651;51.594;9.928;2022-08-01T00:08:41;20.40;99.90
5258;DHT22;2651;51.594;9.928;2022-08-01T00:09:43;20.30;99.90
5258;DHT22;2651;51.594;9.928;2022-08-01T00:10:44;20.30;99.90
5258;DHT22;2651;51.594;9.928;2022-08-01T00:11:46;20.30;99.90
5258;DHT22;2651;51.594;9.928;2022-08-01T00:13:00;20.30;99.90
5258;DHT22;2651;51.594;9.928;2022-08-01T00:14:02;20.30;99.90
5258;DHT22;2651;51.594;9.928;2022-08-01T00:15:05;20.30;99.90
5258;DHT22;2651;51.594;9.928;2022-08-01T00:16:08;20.30;99.90
5258;DHT22;2651;51.594;9.928;2022-08-01T00:17:09;20.20;99.90
5258;DHT22;2651;51.594;9.928;2022-08-01T00:18:11;20.30;99.90
5258;DHT22;2651;51.594;9.928;2022-08-01T00:19:13;20.30;99.90
5258;DHT22;2651;51.594;9.928;2022-08-01T00:20:14;20.30;99.90
5258;DHT22;2651;51.594;9.928;2022-08-01T00:21:17;20.30;99.90
5258;DHT22;2651;51.594;9.928;2022-08-01T00:22:19;20.20;99.90
5258;DHT22;2651;51.594;9.928;2022-08-01T00:23:21;20.20;99.90
5258;DHT22;2651;51.594;9.928;2022-08-01T00:24:22;20.20;99.90
5258;DHT22;2651;51.594;9.928;2022-08-01T00:25:24;20.30;99.90
5258;DHT22;2651;51.594;9.928;2022-08-01T00:26:34;20.30;99.90
5258;DHT22;2651;51.594;9.928;2022-08-01T00:27:36;20.30;99.90
5258;DHT22;2651;51.594;9.928;2022-08-01T00:28:38;20.30;99.90
5258;DHT22;2651;51.594;9.928;2022-08-01T00:29:40;20.30;99.90
5258;DHT22;2651;51.594;9.928;2022-08-01T00:31:02;20.30;99.90
5258;DHT22;2651;51.594;9.928;2022-08-01T00:32:04;20.20;99.90
5258;DHT22;2651;51.594;9.928;2022-08-01T00:33:06;20.30;99.90
5258;DHT22;2651;51.594;9.928;2022-08-01T00:34:08;20.30;99.90
5258;DHT22;2651;51.594;9.928;2022-08-01T00:35:10;20.30;99.90
5258;DHT22;2651;51.594;9.928;2022-08-01T00:36:12;20.30;99.90
5258;DHT22;2651;51.594;9.928;2022-08-01T00:37:14;20.30;99.90
5258;DHT22;2651;51.594;9.928;2022-08-01T00:38:16;20.30;99.90
5258;DHT22;2651;51.594;9.928;2022-08-01T00:39:18;20.30;99.90
5258;DHT22;2651;51.594;9.928;2022-08-01T00:40:20;20.30;99.90
5258;DHT22;2651;51.594;9.928;2022-08-01T00:41:22;20.30;99.90
5258;DHT22;2651;51.594;9.928;2022-08-01T00:42:23;20.30;99.90
5258;DHT22;2651;51.594;9.928;2022-08-01T00:43:25;20.30;99.90
5258;DHT22;2651;51.594;9.928;2022-08-01T00:44:27;20.30;99.90
5258;DHT22;2651;51.594;9.928;2022-08-01T00:45:29;20.30;99.90
5258;DHT22;2651;51.594;9.928;2022-08-01T00:46:31;20.30;99.90
5258;DHT22;2651;51.594;9.928;2022-08-01T00:47:33;20.30;99.90
5258;DHT22;2651;51.594;9.928;2022-08-01T00:48:35;20.30;99.90
5258;DHT22;2651;51.594;9.928;2022-08-01T00:49:36;20.30;99.90
5258;DHT22;2651;51.594;9.928;2022-08-01T00:50:38;20.30;99.90
5258;DHT22;2651;51.594;9.928;2022-08-01T00:51:40;20.30;99.90
5258;DHT22;2651;51.594;9.928;2022-08-01T00:52:43;20.30;99.90
5258;DHT22;2651;51.594;9.928;2022-08-01T00:53:52;20.20;99.90
5258;DHT22;2651;51.594;9.928;2022-08-01T00:54:55;20.30;99.90
5258;DHT22;2651;51.594;9.928;2022-08-01T00:55:57;20.20;99.90
5258;DHT22;2651;51.594;9.928;2022-08-01T00:56:59;20.20;99.90
5258;DHT22;2651;51.594;9.928;2022-08-01T00:58:01;20.30;99.90
5258;DHT22;2651;51.594;9.928;2022-08-01T00:59:07;20.30;99.90
5258;DHT22;2651;51.594;9.928;2022-08-01T01:00:16;20.30;99.90
5258;DHT22;2651;51.594;9.928;2022-08-01T01:01:18;20.30;99.90
5258;DHT22;2651;51.594;9.928;2022-08-01T01:02:22;20.30;99.90
5258;DHT22;2651;51.594;9.928;2022-08-01T01:03:23;20.20;99.90
5258;DHT22;2651;51.594;9.928;2022-08-01T01:04:45;20.20;99.90
5258;DHT22;2651;51.594;9.928;2022-08-01T01:06:05;20.20;99.90
5258;DHT22;2651;51.594;9.928;2022-08-01T01:08:43;20.20;99.90
5258;DHT22;2651;51.594;9.928;2022-08-01T01:11:15;20.20;99.90
5258;DHT22;2651;51.594;9.928;2022-08-01T01:12:38;20.20;99.90
5258;DHT22;2651;51.594;9.928;2022-08-01T01:13:48;20.10;99.90
5258;DHT22;2651;51.594;9.928;2022-08-01T01:15:13;20.10;99.90
5258;DHT22;2651;51.594;9.928;2022-08-01T01:16:19;20.10;99.90
5258;DHT22;2651;51.594;9.928;2022-08-01T01:17:28;20.10;99.90
5258;DHT22;2651;51.594;9.928;2022-08-01T01:18:55;20.10;99.90
5258;DHT22;2651;51.594;9.928;2022-08-01T01:19:59;20.10;99.90
5258;DHT22;2651;51.594;9.928;2022-08-01T01:26:56;20.00;99.90
5258;DHT22;2651;51.594;9.928;2022-08-01T01:28:15;20.00;99.90
5258;DHT22;2651;51.594;9.928;2022-08-01T01:29:28;20.00;99.90
5258;DHT22;2651;51.594;9.928;2022-08-01T01:30:53;20.10;99.90
5258;DHT22;2651;51.594;9.928;2022-08-01T01:32:02;20.00;99.90
5258;DHT22;2651;51.594;9.928;2022-08-01T01:33:06;20.00;99.90
5258;DHT22;2651;51.594;9.928;2022-08-01T01:34:12;19.90;99.90
5258;DHT22;2651;51.594;9.928;2022-08-01T01:35:22;19.90;99.90
5258;DHT22;2651;51.594;9.928;2022-08-01T01:36:26;19.80;99.90
5258;DHT22;2651;51.594;9.928;2022-08-01T01:37:30;19.80;99.90
5258;DHT22;2651;51.594;9.928;2022-08-01T01:38:36;19.80;99.90
5258;DHT22;2651;51.594;9.928;2022-08-01T01:39:39;19.90;99.90
5258;DHT22;2651;51.594;9.928;2022-08-01T01:40:51;19.80;99.90
5258;DHT22;2651;51.594;9.928;2022-08-01T01:41:54;19.80;99.90
5258;DHT22;2651;51.594;9.928;2022-08-01T01:42:56;19.70;99.90
5258;DHT22;2651;51.594;9.928;2022-08-01T01:44:00;19.70;99.90
5258;DHT22;2651;51.594;9.928;2022-08-01T01:45:04;19.70;99.90
5258;DHT22;2651;51.594;9.928;2022-08-01T01:46:07;19.70;99.90
5258;DHT22;2651;51.594;9.928;2022-08-01T01:47:12;19.70;99.90
5258;DHT22;2651;51.594;9.928;2022-08-01T01:48:19;19.80;99.90
5258;DHT22;2651;51.594;9.928;2022-08-01T01:49:26;19.80;99.90
5258;DHT22;2651;51.594;9.928;2022-08-01T01:50:28;19.70;99.90
5258;DHT22;2651;51.594;9.928;2022-08-01T01:51:31;19.80;99.90
5258;DHT22;2651;51.594;9.928;2022-08-01T01:52:34;19.80;99.90
5258;DHT22;2651;51.594;9.928;2022-08-01T01:53:36;19.80;99.90
5258;DHT22;2651;51.594;9.928;2022-08-01T01:54:42;19.80;99.90
5258;DHT22;2651;51.594;9.928;2022-08-01T01:55:48;19.80;99.90
5258;DHT22;2651;51.594;9.928;2022-08-01T01:56:52;19.80;99.90
5258;DHT22;2651;51.594;9.928;2022-08-01T01:57:55;19.90;99.90
5258;DHT22;2651;51.594;9.928;2022-08-01T01:59:00;19.80;99.90
5258;DHT22;2651;51.594;9.928;2022-08-01T02:00:02;19.80;99.90
5258;DHT22;2651;51.594;9.928;2022-08-01T02:01:07;19.80;99.90
5258;DHT22;2651;51.594;9.928;2022-08-01T02:02:16;19.80;99.90
5258;DHT22;2651;51.594;9.928;2022-08-01T02:03:19;19.70;99.90
5258;DHT22;2651;51.594;9.928;2022-08-01T02:04:23;19.70;99.90
5258;DHT22;2651;51.594;9.928;2022-08-01T02:05:26;19.70;99.90
5258;DHT22;2651;51.594;9.928;2022-08-01T02:06:30;19.70;99.90
5258;DHT22;2651;51.594;9.928;2022-08-01T02:07:33;19.70;99.90
5258;DHT22;2651;51.594;9.928;2022-08-01T02:08:37;19.70;99.90
5258;DHT22;2651;51.594;9.928;2022-08-01T02:09:42;19.70;99.90
5258;DHT22;2651;51.594;9.928;2022-08-01T02:10:45;19.70;99.90
5258;DHT22;2651;51.594;9.928;2022-08-01T02:12:10;19.70;99.90
5258;DHT22;2651;51.594;9.928;2022-08-01T02:13:13;19.70;99.90
5258;DHT22;2651;51.594;9.928;2022-08-01T02:14:15;19.70;99.90
5258;DHT22;2651;51.594;9.928;2022-08-01T02:15:18;19.80;99.90
5258;DHT22;2651;51.594;9.928;2022-08-01T02:28:34;19.90;99.90
5258;DHT22;2651;51.594;9.928;2022-08-01T02:29:41;19.80;99.90
5258;DHT22;2651;51.594;9.928;2022-08-01T02:30:47;19.80;99.90
5258;DHT22;2651;51.594;9.928;2022-08-01T02:31:52;19.80;99.90
5258;DHT22;2651;51.594;9.928;2022-08-01T02:33:02;19.80;99.90
5258;DHT22;2651;51.594;9.928;2022-08-01T02:34:06;19.80;99.90
5258;DHT22;2651;51.594;9.928;2022-08-01T02:35:13;19.80;99.90
5258;DHT22;2651;51.594;9.928;2022-08-01T02:36:20;19.80;99.90
5258;DHT22;2651;51.594;9.928;2022-08-01T02:37:36;19.80;99.90
5258;DHT22;2651;51.594;9.928;2022-08-01T02:38:45;19.90;99.90
5258;DHT22;2651;51.594;9.928;2022-08-01T02:39:51;19.90;99.90
5258;DHT22;2651;51.594;9.928;2022-08-01T02:40:56;19.90;99.90
5258;DHT22;2651;51.594;9.928;2022-08-01T02:42:04;19.90;99.90
5258;DHT22;2651;51.594;9.928;2022-08-01T02:43:08;19.90;99.90
5258;DHT22;2651;51.594;9.928;2022-08-01T02:44:24;19.90;99.90
5258;DHT22;2651;51.594;9.928;2022-08-01T02:45:29;19.90;99.90
5258;DHT22;2651;51.594;9.928;2022-08-01T02:46:40;19.80;99.90
5258;DHT22;2651;51.594;9.928;2022-08-01T02:47:43;19.90;99.90
5258;DHT22;2651;51.594;9.928;2022-08-01T02:48:47;19.80;99.90
5258;DHT22;2651;51.594;9.928;2022-08-01T02:49:50;19.70;99.90
5258;DHT22;2651;51.594;9.928;2022-08-01T02:50:56;19.70;99.90
5258;DHT22;2651;51.594;9.928;2022-08-01T02:52:00;19.80;99.90
5258;DHT22;2651;51.594;9.928;2022-08-01T02:53:05;19.80;99.90
5258;DHT22;2651;51.594;9.928;2022-08-01T02:54:10;19.80;99.90
5258;DHT22;2651;51.594;9.928;2022-08-01T02:55:13;19.80;99.90
5258;DHT22;2651;51.594;9.928;2022-08-01T02:56:16;19.80;99.90
5258;DHT22;2651;51.594;9.928;2022-08-01T02:57:19;19.90;99.90
5258;DHT22;2651;51.594;9.928;2022-08-01T02:58:22;19.90;99.90
5258;DHT22;2651;51.594;9.928;2022-08-01T02:59:31;19.80;99.90
5258;DHT22;2651;51.594;9.928;2022-08-01T03:00:35;19.80;99.90
5258;DHT22;2651;51.594;9.928;2022-08-01T03:01:38;19.80;99.90
5258;DHT22;2651;51.594;9.928;2022-08-01T03:02:44;19.80;99.90
5258;DHT22;2651;51.594;9.928;2022-08-01T03:03:47;19.80;99.90
5258;DHT22;2651;51.594;9.928;2022-08-01T03:04:50;19.80;99.90
5258;DHT22;2651;51.594;9.928;2022-08-01T03:05:58;19.70;99.90
5258;DHT22;2651;51.594;9.928;2022-08-01T03:07:02;19.70;99.90
5258;DHT22;2651;51.594;9.928;2022-08-01T03:08:06;19.70;99.90
5258;DHT22;2651;51.594;9.928;2022-08-01T03:09:16;19.70;99.90
5258;DHT22;2651;51.594;9.928;2022-08-01T03:10:18;19.70;99.90
5258;DHT22;2651;51.594;9.928;2022-08-01T03:11:21;19.70;99.90
5258;DHT22;2651;51.594;9.928;2022-08-01T03:12:27;19.80;99.90
5258;DHT22;2651;51.594;9.928;2022-08-01T03:13:32;19.80;99.90
5258;DHT22;2651;51.594;9.928;2022-08-01T03:14:36;19.80;99.90
5258;DHT22;2651;51.594;9.928;2022-08-01T03:15:40;19.80;99.90
5258;DHT22;2651;51.594;9.928;2022-08-01T03:16:44;19.90;99.90
5258;DHT22;2651;51.594;9.928;2022-08-01T03:17:47;19.90;99.90
5258;DHT22;2651;51.594;9.928;2022-08-01T03:18:53;19.90;99.90
5258;DHT22;2651;51.594;9.928;2022-08-01T03:19:57;19.90;99.90
5258;DHT22;2651;51.594;9.928;2022-08-01T03:21:00;19.90;99.90
5258;DHT22;2651;51.594;9.928;2022-08-01T03:22:06;19.80;99.90
5258;DHT22;2651;51.594;9.928;2022-08-01T03:23:11;19.80;99.90
5258;DHT22;2651;51.594;9.928;2022-08-01T03:24:14;19.70;99.90
5258;DHT22;2651;51.594;9.928;2022-08-01T03:25:17;19.70;99.90
5258;DHT22;2651;51.594;9.928;2022-08-01T03:26:19;19.70;99.90
5258;DHT22;2651;51.594;9.928;2022-08-01T03:27:22;19.70;99.90
5258;DHT22;2651;51.594;9.928;2022-08-01T03:28:26;19.70;99.90
5258;DHT22;2651;51.594;9.928;2022-08-01T03:29:31;19.80;99.90
5258;DHT22;2651;51.594;9.928;2022-08-01T03:31:00;19.80;99.90
5258;DHT22;2651;51.594;9.928;2022-08-01T03:32:03;19.80;99.90
5258;DHT22;2651;51.594;9.928;2022-08-01T03:33:05;19.80;99.90
5258;DHT22;2651;51.594;9.928;2022-08-01T03:34:07;19.80;99.90
5258;DHT22;2651;51.594;9.928;2022-08-01T03:35:09;19.80;99.90
5258;DHT22;2651;51.594;9.928;2022-08-01T03:36:12;19.90;99.90
5258;DHT22;2651;51.594;9.928;2022-08-01T03:37:26;19.90;99.90
5258;DHT22;2651;51.594;9.928;2022-08-01T03:38:31;19.90;99.90
5258;DHT22;2651;51.594;9.928;2022-08-01T03:39:37;19.80;99.90
5258;DHT22;2651;51.594;9.928;2022-08-01T03:40:47;19.80;99.90
5258;DHT22;2651;51.594;9.928;2022-08-01T03:42:09;19.80;99.90
5258;DHT22;2651;51.594;9.928;2022-08-01T03:43:32;19.80;99.90
5258;DHT22;2651;51.594;9.928;2022-08-01T03:44:37;19.70;99.90
5258;DHT22;2651;51.594;9.928;2022-08-01T03:45:41;19.70;99.90
5258;DHT22;2651;51.594;9.928;2022-08-01T03:46:49;19.70;99.90
5258;DHT22;2651;51.594;9.928;2022-08-01T03:48:05;19.70;99.90
5258;DHT22;2651;51.594;9.928;2022-08-01T03:49:17;19.60;99.90
5258;DHT22;2651;51.594;9.928;2022-08-01T03:50:21;19.60;99.90
5258;DHT22;2651;51.594;9.928;2022-08-01T03:51:24;19.70;99.90
5258;DHT22;2651;51.594;9.928;2022-08-01T03:52:27;19.70;99.90
5258;DHT22;2651;51.594;9.928;2022-08-01T03:53:31;19.60;99.90
5258;DHT22;2651;51.594;9.928;2022-08-01T03:54:37;19.50;99.90
5258;DHT22;2651;51.594;9.928;2022-08-01T03:55:42;19.60;99.90
5258;DHT22;2651;51.594;9.928;2022-08-01T03:56:46;19.60;99.90
5258;DHT22;2651;51.594;9.928;2022-08-01T03:57:50;19.70;99.90
5258;DHT22;2651;51.594;9.928;2022-08-01T03:58:52;19.70;99.90
5258;DHT22;2651;51.594;9.928;2022-08-01T03:59:57;19.70;99.90
5258;DHT22;2651;51.594;9.928;2022-08-01T04:00:59;19.80;99.90
5258;DHT22;2651;51.594;9.928;2022-08-01T04:02:02;19.70;99.90
5258;DHT22;2651;51.594;9.928;2022-08-01T04:03:10;19.70;99.90
5258;DHT22;2651;51.594;9.928;2022-08-01T04:04:13;19.60;99.90
5258;DHT22;2651;51.594;9.928;2022-08-01T04:05:16;19.60;99.90
5258;DHT22;2651;51.594;9.928;2022-08-01T04:06:18;19.60;99.90
5258;DHT22;2651;51.594;9.928;2022-08-01T04:07:25;19.60;99.90
5258;DHT22;2651;51.594;9.928;2022-08-01T04:08:38;19.70;99.90
5258;DHT22;2651;51.594;9.928;2022-08-01T04:09:39;19.70;99.90
5258;DHT22;2651;51.594;9.928;2022-08-01T04:10:43;19.70;99.90
5258;DHT22;2651;51.594;9.928;2022-08-01T04:11:45;19.70;99.90
5258;DHT22;2651;51.594;9.928;2022-08-01T04:12:46;19.70;99.90
5258;DHT22;2651;51.594;9.928;2022-08-01T04:13:48;19.70;99.90
5258;DHT22;2651;51.594;9.928;2022-08-01T04:14:51;19.70;99.90
5258;DHT22;2651;51.594;9.928;2022-08-01T04:15:52;19.70;99.90
5258;DHT22;2651;51.594;9.928;2022-08-01T04:16:55;19.70;99.90
5258;DHT22;2651;51.594;9.928;2022-08-01T04:17:57;19.70;99.90
5258;DHT22;2651;51.594;9.928;2022-08-01T04:18:58;19.60;99.90
5258;DHT22;2651;51.594;9.928;2022-08-01T04:20:01;19.70;99.90
5258;DHT22;2651;51.594;9.928;2022-08-01T04:21:02;19.70;99.90
5258;DHT22;2651;51.594;9.928;2022-08-01T04:22:05;19.70;99.90
5258;DHT22;2651;51.594;9.928;2022-08-01T04:23:08;19.80;99.90
5258;DHT22;2651;51.594;9.928;2022-08-01T04:24:13;19.80;99.90
5258;DHT22;2651;51.594;9.928;2022-08-01T04:25:19;19.80;99.90
5258;DHT22;2651;51.594;9.928;2022-08-01T04:26:24;19.80;99.90
5258;DHT22;2651;51.594;9.928;2022-08-01T04:27:30;19.90;99.90
5258;DHT22;2651;51.594;9.928;2022-08-01T04:28:53;19.90;99.90
5258;DHT22;2651;51.594;9.928;2022-08-01T04:29:58;19.90;99.90
5258;DHT22;2651;51.594;9.928;2022-08-01T04:31:00;19.90;99.90
5258;DHT22;2651;51.594;9.928;2022-08-01T04:32:03;19.90;99.90
5258;DHT22;2651;51.594;9.928;2022-08-01T04:33:08;20.00;99.90
5258;DHT22;2651;51.594;9.928;2022-08-01T04:34:12;20.00;99.90
5258;DHT22;2651;51.594;9.928;2022-08-01T04:35:16;20.00;99.90
5258;DHT22;2651;51.594;9.928;2022-08-01T04:36:40;20.00;99.90
5258;DHT22;2651;51.594;9.928;2022-08-01T04:37:45;20.00;99.90
5258;DHT22;2651;51.594;9.928;2022-08-01T04:38:56;20.00;99.90
5258;DHT22;2651;51.594;9.928;2022-08-01T04:40:00;19.90;99.90
5258;DHT22;2651;51.594;9.928;2022-08-01T04:41:03;19.90;99.90
5258;DHT22;2651;51.594;9.928;2022-08-01T04:42:11;19.90;99.90
5258;DHT22;2651;51.594;9.928;2022-08-01T04:43:13;19.90;99.90
5258;DHT22;2651;51.594;9.928;2022-08-01T04:44:15;19.90;99.90
5258;DHT22;2651;51.594;9.928;2022-08-01T04:45:18;20.00;99.90
5258;DHT22;2651;51.594;9.928;2022-08-01T04:46:20;19.90;99.90
5258;DHT22;2651;51.594;9.928;2022-08-01T04:47:23;20.00;99.90
5258;DHT22;2651;51.594;9.928;2022-08-01T04:48:26;19.90;99.90
5258;DHT22;2651;51.594;9.928;2022-08-01T04:49:30;19.90;99.90
5258;DHT22;2651;51.594;9.928;2022-08-01T04:50:48;19.90;99.90
5258;DHT22;2651;51.594;9.928;2022-08-01T04:51:53;20.00;99.90
5258;DHT22;2651;51.594;9.928;2022-08-01T04:52:59;20.00;99.90
5258;DHT22;2651;51.594;9.928;2022-08-01T04:54:01;20.10;99.90
5258;DHT22;2651;51.594;9.928;2022-08-01T04:55:04;20.10;99.90
5258;DHT22;2651;51.594;9.928;2022-08-01T04:56:07;20.00;99.90
5258;DHT22;2651;51.594;9.928;2022-08-01T04:57:09;20.00;99.90
5258;DHT22;2651;51.594;9.928;2022-08-01T04:58:11;20.10;99.90
5258;DHT22;2651;51.594;9.928;2022-08-01T04:59:19;20.10;99.90
5258;DHT22;2651;51.594;9.928;2022-08-01T05:00:39;20.10;99.90
5258;DHT22;2651;51.594;9.928;2022-08-01T05:01:41;20.10;99.90
5258;DHT22;2651;51.594;9.928;2022-08-01T05:03:01;20.10;99.90
5258;DHT22;2651;51.594;9.928;2022-08-01T05:04:03;20.00;99.90
5258;DHT22;2651;51.594;9.928;2022-08-01T05:05:05;19.90;99.90
5258;DHT22;2651;51.594;9.928;2022-08-01T05:06:07;19.90;99.90
5258;DHT22;2651;51.594;9.928;2022-08-01T05:07:09;20.00;99.90
5258;DHT22;2651;51.594;9.928;2022-08-01T05:08:11;20.00;99.90
5258;DHT22;2651;51.594;9.928;2022-08-01T05:09:13;19.90;99.90
5258;DHT22;2651;51.594;9.928;2022-08-01T05:10:15;20.00;99.90
5258;DHT22;2651;51.594;9.928;2022-08-01T05:11:17;20.00;99.90
5258;DHT22;2651;51.594;9.928;2022-08-01T05:12:23;20.00;99.90
5258;DHT22;2651;51.594;9.928;2022-08-01T05:13:24;20.00;99.90
5258;DHT22;2651;51.594;9.928;2022-08-01T05:14:28;19.90;99.90
5258;DHT22;2651;51.594;9.928;2022-08-01T05:15:30;20.00;99.90
5258;DHT22;2651;51.594;9.928;2022-08-01T05:16:32;20.00;99.90
5258;DHT22;2651;51.594;9.928;2022-08-01T05:17:34;19.90;99.90
5258;DHT22;2651;51.594;9.928;2022-08-01T05:18:35;20.00;99.90
5258;DHT22;2651;51.594;9.928;2022-08-01T05:19:38;20.00;99.90
5258;DHT22;2651;51.594;9.928;2022-08-01T05:20:41;20.00;99.90
5258;DHT22;2651;51.594;9.928;2022-08-01T05:21:44;20.00;99.90
5258;DHT22;2651;51.594;9.928;2022-08-01T05:22:45;20.00;99.90
5258;DHT22;2651;51.594;9.928;2022-08-01T05:23:47;20.10;99.90
5258;DHT22;2651;51.594;9.928;2022-08-01T05:24:50;20.10;99.90
5258;DHT22;2651;51.594;9.928;2022-08-01T05:25:53;20.10;99.90
5258;DHT22;2651;51.594;9.928;2022-08-01T05:26:59;20.10;99.90
5258;DHT22;2651;51.594;9.928;2022-08-01T05:28:01;20.00;99.90
5258;DHT22;2651;51.594;9.928;2022-08-01T05:29:04;20.00;99.90
5258;DHT22;2651;51.594;9.928;2022-08-01T05:30:07;19.90;99.90
5258;DHT22;2651;51.594;9.928;2022-08-01T05:31:09;20.00;99.90
5258;DHT22;2651;51.594;9.928;2022-08-01T05:32:11;20.10;99.90
5258;DHT22;2651;51.594;9.928;2022-08-01T05:33:14;20.10;99.90
5258;DHT22;2651;51.594;9.928;2022-08-01T05:34:16;20.10;99.90
5258;DHT22;2651;51.594;9.928;2022-08-01T05:35:18;20.00;99.90
5258;DHT22;2651;51.594;9.928;2022-08-01T05:36:20;20.10;99.90
5258;DHT22;2651;51.594;9.928;2022-08-01T05:37:21;20.10;99.90
5258;DHT22;2651;51.594;9.928;2022-08-01T05:38:23;20.10;99.90
5258;DHT22;2651;51.594;9.928;2022-08-01T05:39:25;20.20;99.90
5258;DHT22;2651;51.594;9.928;2022-08-01T05:40:26;20.20;99.90
5258;DHT22;2651;51.594;9.928;2022-08-01T05:41:28;20.20;99.90
5258;DHT22;2651;51.594;9.928;2022-08-01T05:42:30;20.20;99.90
5258;DHT22;2651;51.594;9.928;2022-08-01T05:43:32;20.20;99.90
5258;DHT22;2651;51.594;9.928;2022-08-01T05:44:33;20.20;99.90
5258;DHT22;2651;51.594;9.928;2022-08-01T05:45:35;20.30;99.90
5258;DHT22;2651;51.594;9.928;2022-08-01T05:46:37;20.30;99.90
5258;DHT22;2651;51.594;9.928;2022-08-01T05:47:39;20.30;99.90
5258;DHT22;2651;51.594;9.928;2022-08-01T05:48:43;20.20;99.90
5258;DHT22;2651;51.594;9.928;2022-08-01T05:49:45;20.20;99.90
5258;DHT22;2651;51.594;9.928;2022-08-01T05:50:47;20.30;99.90
5258;DHT22;2651;51.594;9.928;2022-08-01T05:51:49;20.30;99.90
5258;DHT22;2651;51.594;9.928;2022-08-01T05:52:50;20.30;99.90
5258;DHT22;2651;51.594;9.928;2022-08-01T05:53:53;20.30;99.90
5258;DHT22;2651;51.594;9.928;2022-08-01T05:54:55;20.40;99.90
5258;DHT22;2651;51.594;9.928;2022-08-01T05:55:57;20.40;99.90
5258;DHT22;2651;51.594;9.928;2022-08-01T05:56:58;20.40;99.90
5258;DHT22;2651;51.594;9.928;2022-08-01T05:58:03;20.30;99.90
5258;DHT22;2651;51.594;9.928;2022-08-01T05:59:05;20.40;99.90
5258;DHT22;2651;51.594;9.928;2022-08-01T06:00:07;20.40;99.90
5258;DHT22;2651;51.594;9.928;2022-08-01T06:01:09;20.40;99.90
5258;DHT22;2651;51.594;9.928;2022-08-01T06:02:11;20.40;99.90
5258;DHT22;2651;51.594;9.928;2022-08-01T06:03:13;20.40;99.90
5258;DHT22;2651;51.594;9.928;2022-08-01T06:04:15;20.40;99.90
5258;DHT22;2651;51.594;9.928;2022-08-01T06:05:17;20.30;99.90
5258;DHT22;2651;51.594;9.928;2022-08-01T06:06:19;20.40;99.90
5258;DHT22;2651;51.594;9.928;2022-08-01T06:07:26;20.40;99.90
5258;DHT22;2651;51.594;9.928;2022-08-01T06:08:27;20.30;99.90
5258;DHT22;2651;51.594;9.928;2022-08-01T06:09:29;20.20;99.90
5258;DHT22;2651;51.594;9.928;2022-08-01T06:10:32;20.20;99.90
5258;DHT22;2651;51.594;9.928;2022-08-01T06:11:34;20.20;99.90
5258;DHT22;2651;51.594;9.928;2022-08-01T06:12:36;20.20;99.90
5258;DHT22;2651;51.594;9.928;2022-08-01T06:13:37;20.30;99.90
5258;DHT22;2651;51.594;9.928;2022-08-01T06:14:49;20.40;99.90
5258;DHT22;2651;51.594;9.928;2022-08-01T06:15:51;20.50;99.90
5258;DHT22;2651;51.594;9.928;2022-08-01T06:16:52;20.60;99.90
5258;DHT22;2651;51.594;9.928;2022-08-01T06:17:55;20.60;99.90
5258;DHT22;2651;51.594;9.928;2022-08-01T06:18:56;20.60;99.90
5258;DHT22;2651;51.594;9.928;2022-08-01T06:19:58;20.70;99.90
5258;DHT22;2651;51.594;9.928;2022-08-01T06:21:00;20.80;99.90
5258;DHT22;2651;51.594;9.928;2022-08-01T06:22:02;20.80;99.90
5258;DHT22;2651;51.594;9.928;2022-08-01T06:23:05;20.80;99.90
5258;DHT22;2651;51.594;9.928;2022-08-01T06:24:27;20.80;99.90
5258;DHT22;2651;51.594;9.928;2022-08-01T06:25:29;20.80;99.90
5258;DHT22;2651;51.594;9.928;2022-08-01T06:26:30;20.80;99.90
5258;DHT22;2651;51.594;9.928;2022-08-01T06:27:34;20.80;99.90
5258;DHT22;2651;51.594;9.928;2022-08-01T06:28:37;20.70;99.90
5258;DHT22;2651;51.594;9.928;2022-08-01T06:29:39;20.70;99.90
5258;DHT22;2651;51.594;9.928;2022-08-01T06:30:53;20.70;99.90
5258;DHT22;2651;51.594;9.928;2022-08-01T06:31:55;20.70;99.90
5258;DHT22;2651;51.594;9.928;2022-08-01T06:32:57;20.70;99.90
5258;DHT22;2651;51.594;9.928;2022-08-01T06:34:00;20.70;99.90
5258;DHT22;2651;51.594;9.928;2022-08-01T06:35:02;20.70;99.90
5258;DHT22;2651;51.594;9.928;2022-08-01T06:36:04;20.70;99.90
5258;DHT22;2651;51.594;9.928;2022-08-01T06:37:06;20.70;99.90
5258;DHT22;2651;51.594;9.928;2022-08-01T06:38:08;20.80;99.90
5258;DHT22;2651;51.594;9.928;2022-08-01T06:39:10;20.70;99.90
5258;DHT22;2651;51.594;9.928;2022-08-01T06:40:12;20.70;99.90
5258;DHT22;2651;51.594;9.928;2022-08-01T06:41:18;20.80;99.90
5258;DHT22;2651;51.594;9.928;2022-08-01T06:42:19;20.70;99.90
5258;DHT22;2651;51.594;9.928;2022-08-01T06:43:21;20.80;99.90
5258;DHT22;2651;51.594;9.928;2022-08-01T06:44:23;20.80;99.90
5258;DHT22;2651;51.594;9.928;2022-08-01T06:45:25;20.80;99.90
5258;DHT22;2651;51.594;9.928;2022-08-01T06:46:28;20.90;99.90
5258;DHT22;2651;51.594;9.928;2022-08-01T06:47:33;20.90;99.90
5258;DHT22;2651;51.594;9.928;2022-08-01T06:48:34;21.00;99.90
5258;DHT22;2651;51.594;9.928;2022-08-01T06:49:40;21.00;99.90
5258;DHT22;2651;51.594;9.928;2022-08-01T06:50:42;21.00;99.90
5258;DHT22;2651;51.594;9.928;2022-08-01T06:51:44;21.00;99.90
5258;DHT22;2651;51.594;9.928;2022-08-01T06:52:45;21.00;99.90
5258;DHT22;2651;51.594;9.928;2022-08-01T06:53:47;21.10;99.90
5258;DHT22;2651;51.594;9.928;2022-08-01T06:54:49;21.10;99.90
5258;DHT22;2651;51.594;9.928;2022-08-01T06:55:50;21.00;99.90
5258;DHT22;2651;51.594;9.928;2022-08-01T06:56:52;21.00;99.90
5258;DHT22;2651;51.594;9.928;2022-08-01T06:57:54;21.00;99.90
5258;DHT22;2651;51.594;9.928;2022-08-01T06:58:56;21.00;99.90
5258;DHT22;2651;51.594;9.928;2022-08-01T07:00:06;21.00;99.90
5258;DHT22;2651;51.594;9.928;2022-08-01T07:01:10;21.00;99.90
5258;DHT22;2651;51.594;9.928;2022-08-01T07:02:12;21.10;99.90
5258;DHT22;2651;51.594;9.928;2022-08-01T07:03:16;21.00;99.90
5258;DHT22;2651;51.594;9.928;2022-08-01T07:04:18;21.00;99.90
5258;DHT22;2651;51.594;9.928;2022-08-01T07:05:20;21.00;99.90
5258;DHT22;2651;51.594;9.928;2022-08-01T07:06:24;21.00;99.90
5258;DHT22;2651;51.594;9.928;2022-08-01T07:07:26;21.00;99.90
5258;DHT22;2651;51.594;9.928;2022-08-01T07:08:28;21.00;99.90
5258;DHT22;2651;51.594;9.928;2022-08-01T07:09:30;21.00;99.90
5258;DHT22;2651;51.594;9.928;2022-08-01T07:10:32;21.00;99.90
5258;DHT22;2651;51.594;9.928;2022-08-01T07:11:34;21.00;99.90
5258;DHT22;2651;51.594;9.928;2022-08-01T07:12:36;21.00;99.90
5258;DHT22;2651;51.594;9.928;2022-08-01T07:13:39;20.90;99.90
5258;DHT22;2651;51.594;9.928;2022-08-01T07:14:46;20.80;99.90
5258;DHT22;2651;51.594;9.928;2022-08-01T07:15:48;20.80;99.90
5258;DHT22;2651;51.594;9.928;2022-08-01T07:16:50;20.80;99.90
5258;DHT22;2651;51.594;9.928;2022-08-01T07:17:52;20.80;99.90
5258;DHT22;2651;51.594;9.928;2022-08-01T07:18:54;20.80;99.90
5258;DHT22;2651;51.594;9.928;2022-08-01T07:19:56;20.80;99.90
5258;DHT22;2651;51.594;9.928;2022-08-01T07:20:58;20.70;99.90
5258;DHT22;2651;51.594;9.928;2022-08-01T07:22:00;20.70;99.90